ドゥシャンベ の空港の天気 - METARとTAF

ドゥシャンベ空港 ( UTDD / DYU ) - タジキスタン ドゥシャンベ
飛行場実況気象(Metar)
観測時間08/07 02:00 TJT (08/06 21:00 UTC)
風向・風速東北東 2m/s
視程10km以上
天気現象
なし
気温23℃
湿度47%
気圧1009hPa
METARUTDD 062100Z 07002MPS 9999 NSC 23/11 Q1009 R09/D NOSIG RMK QFE689/0918
過去の天気等 Google飛行場航空写真 Wunderground天気予報

過去48時間のMETAR

飛行場予報(TAF)
発表時間: 8/06 23:00 TJT (8/06 18:00 UTC)
予報対象時間: 7日0時 TJT ~ 7日12時 TJT
風向・風速不定 2m/s
視程6000m
少しの積乱雲 雲底高度 2010m
全天の4割程度の雲 雲底高度 3350m
TAF UTDD 061800Z 0619/0707 VRB02MPS 6000 FEW066CB SCT110